sensor_id;sensor_type;location;lat;lon;timestamp;temperature;humidity
31725;DHT22;18306;40.960;14.836;2023-04-28T00:01:51;15.00;99.90
31725;DHT22;18306;40.960;14.836;2023-04-28T00:04:18;14.90;99.90
31725;DHT22;18306;40.960;14.836;2023-04-28T00:06:45;14.90;99.90
31725;DHT22;18306;40.960;14.836;2023-04-28T00:09:12;15.00;99.90
31725;DHT22;18306;40.960;14.836;2023-04-28T00:11:39;15.00;99.90
31725;DHT22;18306;40.960;14.836;2023-04-28T00:14:06;15.10;99.90
31725;DHT22;18306;40.960;14.836;2023-04-28T00:16:33;15.10;99.90
31725;DHT22;18306;40.960;14.836;2023-04-28T00:19:00;15.10;99.90
31725;DHT22;18306;40.960;14.836;2023-04-28T00:21:27;15.00;99.90
31725;DHT22;18306;40.960;14.836;2023-04-28T00:23:54;14.90;99.90
31725;DHT22;18306;40.960;14.836;2023-04-28T00:26:22;15.00;99.90
31725;DHT22;18306;40.960;14.836;2023-04-28T00:28:49;15.10;99.90
31725;DHT22;18306;40.960;14.836;2023-04-28T00:31:17;15.20;99.90
31725;DHT22;18306;40.960;14.836;2023-04-28T00:33:43;15.30;99.90
31725;DHT22;18306;40.960;14.836;2023-04-28T00:36:11;15.30;99.90
31725;DHT22;18306;40.960;14.836;2023-04-28T00:38:37;15.20;99.90
31725;DHT22;18306;40.960;14.836;2023-04-28T00:41:05;15.10;99.90
31725;DHT22;18306;40.960;14.836;2023-04-28T00:43:46;15.10;99.90
31725;DHT22;18306;40.960;14.836;2023-04-28T00:46:20;15.10;99.90
31725;DHT22;18306;40.960;14.836;2023-04-28T00:48:48;15.00;99.90
31725;DHT22;18306;40.960;14.836;2023-04-28T00:51:16;15.10;99.90
31725;DHT22;18306;40.960;14.836;2023-04-28T00:53:47;15.00;99.90
31725;DHT22;18306;40.960;14.836;2023-04-28T00:56:20;14.90;99.90
31725;DHT22;18306;40.960;14.836;2023-04-28T00:58:58;14.90;99.90
31725;DHT22;18306;40.960;14.836;2023-04-28T01:01:29;14.90;99.90
31725;DHT22;18306;40.960;14.836;2023-04-28T01:03:59;14.80;99.90
31725;DHT22;18306;40.960;14.836;2023-04-28T01:06:27;14.60;99.90
31725;DHT22;18306;40.960;14.836;2023-04-28T01:08:58;14.50;99.90
31725;DHT22;18306;40.960;14.836;2023-04-28T01:11:25;14.40;99.90
31725;DHT22;18306;40.960;14.836;2023-04-28T01:14:03;14.40;99.90
31725;DHT22;18306;40.960;14.836;2023-04-28T01:16:35;14.40;99.90
31725;DHT22;18306;40.960;14.836;2023-04-28T01:19:06;14.50;99.90
31725;DHT22;18306;40.960;14.836;2023-04-28T01:21:36;14.50;99.90
31725;DHT22;18306;40.960;14.836;2023-04-28T01:24:29;14.40;99.90
31725;DHT22;18306;40.960;14.836;2023-04-28T01:27:00;14.20;99.90
31725;DHT22;18306;40.960;14.836;2023-04-28T01:29:27;14.10;99.90
31725;DHT22;18306;40.960;14.836;2023-04-28T01:31:55;14.10;99.90
31725;DHT22;18306;40.960;14.836;2023-04-28T01:34:22;14.10;99.90
31725;DHT22;18306;40.960;14.836;2023-04-28T01:36:48;14.20;99.90
31725;DHT22;18306;40.960;14.836;2023-04-28T01:39:16;14.30;99.90
31725;DHT22;18306;40.960;14.836;2023-04-28T01:41:43;14.30;99.90
31725;DHT22;18306;40.960;14.836;2023-04-28T01:44:10;14.30;99.90
31725;DHT22;18306;40.960;14.836;2023-04-28T01:46:38;14.20;99.90
31725;DHT22;18306;40.960;14.836;2023-04-28T01:49:05;14.20;99.90
31725;DHT22;18306;40.960;14.836;2023-04-28T01:51:33;14.10;99.90
31725;DHT22;18306;40.960;14.836;2023-04-28T01:54:01;14.10;99.90
31725;DHT22;18306;40.960;14.836;2023-04-28T01:56:29;14.20;99.90
31725;DHT22;18306;40.960;14.836;2023-04-28T01:59:00;14.20;99.90
31725;DHT22;18306;40.960;14.836;2023-04-28T02:01:34;14.10;99.90
31725;DHT22;18306;40.960;14.836;2023-04-28T02:04:01;14.00;99.90
31725;DHT22;18306;40.960;14.836;2023-04-28T02:06:30;14.00;99.90
31725;DHT22;18306;40.960;14.836;2023-04-28T02:08:59;13.90;99.90
31725;DHT22;18306;40.960;14.836;2023-04-28T02:11:30;14.00;99.90
31725;DHT22;18306;40.960;14.836;2023-04-28T02:13:58;14.00;99.90
31725;DHT22;18306;40.960;14.836;2023-04-28T02:16:27;13.90;99.90
31725;DHT22;18306;40.960;14.836;2023-04-28T02:18:54;13.90;99.90
31725;DHT22;18306;40.960;14.836;2023-04-28T02:21:21;13.90;99.90
31725;DHT22;18306;40.960;14.836;2023-04-28T02:23:48;14.00;99.90
31725;DHT22;18306;40.960;14.836;2023-04-28T02:26:17;14.00;99.90
31725;DHT22;18306;40.960;14.836;2023-04-28T02:28:45;14.00;99.90
31725;DHT22;18306;40.960;14.836;2023-04-28T02:31:14;14.10;99.90
31725;DHT22;18306;40.960;14.836;2023-04-28T02:33:41;14.10;99.90
31725;DHT22;18306;40.960;14.836;2023-04-28T02:36:13;14.10;99.90
31725;DHT22;18306;40.960;14.836;2023-04-28T02:38:40;14.00;99.90
31725;DHT22;18306;40.960;14.836;2023-04-28T02:41:07;14.00;99.90
31725;DHT22;18306;40.960;14.836;2023-04-28T02:43:36;14.00;99.90
31725;DHT22;18306;40.960;14.836;2023-04-28T02:46:04;14.10;99.90
31725;DHT22;18306;40.960;14.836;2023-04-28T02:48:31;14.10;99.90
31725;DHT22;18306;40.960;14.836;2023-04-28T02:51:01;14.00;99.90
31725;DHT22;18306;40.960;14.836;2023-04-28T02:53:28;13.90;99.90
31725;DHT22;18306;40.960;14.836;2023-04-28T02:55:55;13.80;99.90
31725;DHT22;18306;40.960;14.836;2023-04-28T02:58:22;13.70;99.90
31725;DHT22;18306;40.960;14.836;2023-04-28T03:00:49;13.60;99.90
31725;DHT22;18306;40.960;14.836;2023-04-28T03:03:18;13.60;99.90
31725;DHT22;18306;40.960;14.836;2023-04-28T03:05:46;13.50;99.90
31725;DHT22;18306;40.960;14.836;2023-04-28T03:08:13;13.60;99.90
31725;DHT22;18306;40.960;14.836;2023-04-28T03:10:40;13.50;99.90
31725;DHT22;18306;40.960;14.836;2023-04-28T03:13:07;13.60;99.90
31725;DHT22;18306;40.960;14.836;2023-04-28T03:15:34;13.60;99.90
31725;DHT22;18306;40.960;14.836;2023-04-28T03:18:01;13.50;99.90
31725;DHT22;18306;40.960;14.836;2023-04-28T03:20:29;13.50;99.90
31725;DHT22;18306;40.960;14.836;2023-04-28T03:22:55;13.50;99.90
31725;DHT22;18306;40.960;14.836;2023-04-28T03:25:23;13.40;99.90
31725;DHT22;18306;40.960;14.836;2023-04-28T03:27:51;13.40;99.90
31725;DHT22;18306;40.960;14.836;2023-04-28T03:30:18;13.30;99.90
31725;DHT22;18306;40.960;14.836;2023-04-28T03:32:46;13.30;99.90
31725;DHT22;18306;40.960;14.836;2023-04-28T03:35:13;13.30;99.90
31725;DHT22;18306;40.960;14.836;2023-04-28T03:37:41;13.20;99.90
31725;DHT22;18306;40.960;14.836;2023-04-28T03:40:09;13.10;99.90
31725;DHT22;18306;40.960;14.836;2023-04-28T03:42:56;13.20;99.90
31725;DHT22;18306;40.960;14.836;2023-04-28T03:45:28;13.20;99.90
31725;DHT22;18306;40.960;14.836;2023-04-28T03:47:56;13.30;99.90
31725;DHT22;18306;40.960;14.836;2023-04-28T03:50:23;13.10;99.90
31725;DHT22;18306;40.960;14.836;2023-04-28T03:52:50;13.00;99.90
31725;DHT22;18306;40.960;14.836;2023-04-28T03:55:18;13.00;99.90
31725;DHT22;18306;40.960;14.836;2023-04-28T03:57:45;13.00;99.90
31725;DHT22;18306;40.960;14.836;2023-04-28T04:00:14;13.00;99.90
31725;DHT22;18306;40.960;14.836;2023-04-28T04:02:46;13.00;99.90
31725;DHT22;18306;40.960;14.836;2023-04-28T04:05:13;13.10;99.90
31725;DHT22;18306;40.960;14.836;2023-04-28T04:07:40;13.10;99.90
31725;DHT22;18306;40.960;14.836;2023-04-28T04:10:08;13.10;99.90
31725;DHT22;18306;40.960;14.836;2023-04-28T04:12:42;13.00;99.90
31725;DHT22;18306;40.960;14.836;2023-04-28T04:15:09;12.90;99.90
31725;DHT22;18306;40.960;14.836;2023-04-28T04:17:39;12.90;99.90
31725;DHT22;18306;40.960;14.836;2023-04-28T04:20:08;13.00;99.90
31725;DHT22;18306;40.960;14.836;2023-04-28T04:22:37;13.10;99.90
31725;DHT22;18306;40.960;14.836;2023-04-28T04:25:04;13.20;99.90
31725;DHT22;18306;40.960;14.836;2023-04-28T04:27:33;13.20;99.90
31725;DHT22;18306;40.960;14.836;2023-04-28T04:30:00;13.30;99.90
31725;DHT22;18306;40.960;14.836;2023-04-28T04:32:28;13.30;99.90
31725;DHT22;18306;40.960;14.836;2023-04-28T04:34:55;13.30;99.90
31725;DHT22;18306;40.960;14.836;2023-04-28T04:37:25;13.30;99.90
31725;DHT22;18306;40.960;14.836;2023-04-28T04:40:00;13.40;99.90
31725;DHT22;18306;40.960;14.836;2023-04-28T04:42:33;13.30;99.90
31725;DHT22;18306;40.960;14.836;2023-04-28T04:45:08;13.30;99.90
31725;DHT22;18306;40.960;14.836;2023-04-28T04:47:36;13.40;99.90
31725;DHT22;18306;40.960;14.836;2023-04-28T04:50:03;13.30;99.90
31725;DHT22;18306;40.960;14.836;2023-04-28T04:52:30;13.30;99.90
31725;DHT22;18306;40.960;14.836;2023-04-28T04:54:58;13.40;99.90
31725;DHT22;18306;40.960;14.836;2023-04-28T04:57:25;13.40;99.90
31725;DHT22;18306;40.960;14.836;2023-04-28T05:00:09;13.50;99.90
31725;DHT22;18306;40.960;14.836;2023-04-28T05:02:39;13.60;99.90
31725;DHT22;18306;40.960;14.836;2023-04-28T05:05:06;13.50;99.90
31725;DHT22;18306;40.960;14.836;2023-04-28T05:07:34;13.70;99.90
31725;DHT22;18306;40.960;14.836;2023-04-28T05:10:01;13.90;99.90
31725;DHT22;18306;40.960;14.836;2023-04-28T05:12:30;13.90;99.90
31725;DHT22;18306;40.960;14.836;2023-04-28T05:14:57;13.90;99.90
31725;DHT22;18306;40.960;14.836;2023-04-28T05:17:24;13.90;99.90
31725;DHT22;18306;40.960;14.836;2023-04-28T05:19:51;13.90;99.90
31725;DHT22;18306;40.960;14.836;2023-04-28T05:22:18;14.00;99.90
31725;DHT22;18306;40.960;14.836;2023-04-28T05:24:45;14.00;99.90
31725;DHT22;18306;40.960;14.836;2023-04-28T05:27:13;14.10;99.90
31725;DHT22;18306;40.960;14.836;2023-04-28T05:29:43;14.20;99.90
31725;DHT22;18306;40.960;14.836;2023-04-28T05:32:15;14.30;99.90
31725;DHT22;18306;40.960;14.836;2023-04-28T05:34:41;14.30;99.90
31725;DHT22;18306;40.960;14.836;2023-04-28T05:37:09;14.40;99.90
31725;DHT22;18306;40.960;14.836;2023-04-28T05:42:55;14.50;99.90
31725;DHT22;18306;40.960;14.836;2023-04-28T05:45:22;14.60;99.90
31725;DHT22;18306;40.960;14.836;2023-04-28T05:47:49;14.70;99.90
31725;DHT22;18306;40.960;14.836;2023-04-28T05:50:17;14.80;99.90
31725;DHT22;18306;40.960;14.836;2023-04-28T05:52:44;14.90;99.90
31725;DHT22;18306;40.960;14.836;2023-04-28T05:55:11;15.10;99.90
31725;DHT22;18306;40.960;14.836;2023-04-28T05:57:39;15.30;99.90
31725;DHT22;18306;40.960;14.836;2023-04-28T06:00:06;15.50;99.90
31725;DHT22;18306;40.960;14.836;2023-04-28T06:02:39;15.70;99.90
31725;DHT22;18306;40.960;14.836;2023-04-28T06:05:07;15.90;99.90
31725;DHT22;18306;40.960;14.836;2023-04-28T06:07:40;16.10;99.90
31725;DHT22;18306;40.960;14.836;2023-04-28T06:10:08;16.20;99.90
31725;DHT22;18306;40.960;14.836;2023-04-28T06:12:36;16.30;99.90
31725;DHT22;18306;40.960;14.836;2023-04-28T06:15:04;16.50;99.90
31725;DHT22;18306;40.960;14.836;2023-04-28T06:17:31;16.70;99.90
31725;DHT22;18306;40.960;14.836;2023-04-28T06:19:59;16.90;99.90
31725;DHT22;18306;40.960;14.836;2023-04-28T06:22:26;17.00;99.90
31725;DHT22;18306;40.960;14.836;2023-04-28T06:24:56;17.20;99.90
31725;DHT22;18306;40.960;14.836;2023-04-28T06:27:31;17.60;99.90
31725;DHT22;18306;40.960;14.836;2023-04-28T06:29:58;18.00;99.90
31725;DHT22;18306;40.960;14.836;2023-04-28T06:32:25;18.50;99.90
31725;DHT22;18306;40.960;14.836;2023-04-28T06:34:52;18.60;99.90
31725;DHT22;18306;40.960;14.836;2023-04-28T06:37:20;18.60;99.90
31725;DHT22;18306;40.960;14.836;2023-04-28T06:39:47;18.70;99.90
31725;DHT22;18306;40.960;14.836;2023-04-28T06:42:16;19.00;99.90
31725;DHT22;18306;40.960;14.836;2023-04-28T06:44:51;19.00;99.90
31725;DHT22;18306;40.960;14.836;2023-04-28T06:47:19;19.00;99.90
31725;DHT22;18306;40.960;14.836;2023-04-28T06:49:47;19.00;99.90
31725;DHT22;18306;40.960;14.836;2023-04-28T06:52:15;19.00;99.90
31725;DHT22;18306;40.960;14.836;2023-04-28T06:54:42;19.10;99.90
31725;DHT22;18306;40.960;14.836;2023-04-28T06:57:12;19.10;99.90
31725;DHT22;18306;40.960;14.836;2023-04-28T06:59:55;19.10;99.90
31725;DHT22;18306;40.960;14.836;2023-04-28T07:02:28;19.30;99.90
31725;DHT22;18306;40.960;14.836;2023-04-28T07:04:58;19.40;99.90
31725;DHT22;18306;40.960;14.836;2023-04-28T07:07:25;19.60;99.90
31725;DHT22;18306;40.960;14.836;2023-04-28T07:09:52;19.90;99.90
31725;DHT22;18306;40.960;14.836;2023-04-28T07:12:20;20.00;99.90
31725;DHT22;18306;40.960;14.836;2023-04-28T07:14:47;20.10;99.90
31725;DHT22;18306;40.960;14.836;2023-04-28T07:17:16;20.20;99.90
31725;DHT22;18306;40.960;14.836;2023-04-28T07:19:43;20.50;99.90
31725;DHT22;18306;40.960;14.836;2023-04-28T07:22:11;20.70;98.90
31725;DHT22;18306;40.960;14.836;2023-04-28T07:24:38;20.70;98.90
31725;DHT22;18306;40.960;14.836;2023-04-28T07:27:05;21.00;98.40
31725;DHT22;18306;40.960;14.836;2023-04-28T07:29:32;21.00;98.40
31725;DHT22;18306;40.960;14.836;2023-04-28T07:32:01;21.10;99.10
31725;DHT22;18306;40.960;14.836;2023-04-28T07:34:30;21.40;99.10
31725;DHT22;18306;40.960;14.836;2023-04-28T07:36:57;21.80;98.00
31725;DHT22;18306;40.960;14.836;2023-04-28T07:39:25;22.20;97.60
31725;DHT22;18306;40.960;14.836;2023-04-28T07:41:52;22.90;97.00
31725;DHT22;18306;40.960;14.836;2023-04-28T07:44:19;23.50;96.10
31725;DHT22;18306;40.960;14.836;2023-04-28T07:46:46;24.70;95.60
31725;DHT22;18306;40.960;14.836;2023-04-28T07:49:13;26.00;93.80
31725;DHT22;18306;40.960;14.836;2023-04-28T07:51:40;27.20;91.90
31725;DHT22;18306;40.960;14.836;2023-04-28T07:54:07;28.10;90.70
31725;DHT22;18306;40.960;14.836;2023-04-28T07:56:34;28.50;90.00
31725;DHT22;18306;40.960;14.836;2023-04-28T07:59:02;28.00;88.00
31725;DHT22;18306;40.960;14.836;2023-04-28T08:01:29;28.30;85.50
31725;DHT22;18306;40.960;14.836;2023-04-28T08:03:56;28.70;86.20
31725;DHT22;18306;40.960;14.836;2023-04-28T08:06:23;28.70;85.90
31725;DHT22;18306;40.960;14.836;2023-04-28T08:08:50;28.70;84.80
31725;DHT22;18306;40.960;14.836;2023-04-28T08:11:17;28.30;84.00
31725;DHT22;18306;40.960;14.836;2023-04-28T08:13:45;27.80;85.00
31725;DHT22;18306;40.960;14.836;2023-04-28T08:16:14;27.40;85.00
31725;DHT22;18306;40.960;14.836;2023-04-28T08:18:42;26.80;85.50
31725;DHT22;18306;40.960;14.836;2023-04-28T08:21:09;26.60;86.70
31725;DHT22;18306;40.960;14.836;2023-04-28T08:23:36;26.30;87.40
31725;DHT22;18306;40.960;14.836;2023-04-28T08:26:04;25.90;85.90
31725;DHT22;18306;40.960;14.836;2023-04-28T08:28:31;25.50;88.50
31725;DHT22;18306;40.960;14.836;2023-04-28T08:30:59;25.30;88.30
31725;DHT22;18306;40.960;14.836;2023-04-28T08:33:26;25.10;88.50
31725;DHT22;18306;40.960;14.836;2023-04-28T08:35:54;24.90;89.20
31725;DHT22;18306;40.960;14.836;2023-04-28T08:38:22;24.80;88.60
31725;DHT22;18306;40.960;14.836;2023-04-28T08:40:50;24.60;85.50
31725;DHT22;18306;40.960;14.836;2023-04-28T08:43:19;24.50;86.30
31725;DHT22;18306;40.960;14.836;2023-04-28T08:45:47;24.50;86.20
31725;DHT22;18306;40.960;14.836;2023-04-28T08:48:17;24.40;88.60
31725;DHT22;18306;40.960;14.836;2023-04-28T08:50:52;24.30;88.60
31725;DHT22;18306;40.960;14.836;2023-04-28T08:53:24;24.00;85.30
31725;DHT22;18306;40.960;14.836;2023-04-28T08:55:56;23.60;85.70
31725;DHT22;18306;40.960;14.836;2023-04-28T08:58:26;23.70;86.60
31725;DHT22;18306;40.960;14.836;2023-04-28T09:00:54;23.90;87.80
31725;DHT22;18306;40.960;14.836;2023-04-28T09:03:21;24.00;87.40
31725;DHT22;18306;40.960;14.836;2023-04-28T09:05:48;24.00;88.40
31725;DHT22;18306;40.960;14.836;2023-04-28T09:08:15;23.80;88.20
31725;DHT22;18306;40.960;14.836;2023-04-28T09:10:43;23.60;89.80
31725;DHT22;18306;40.960;14.836;2023-04-28T09:13:24;23.40;89.50
31725;DHT22;18306;40.960;14.836;2023-04-28T09:15:58;23.20;90.00
31725;DHT22;18306;40.960;14.836;2023-04-28T09:18:26;23.30;87.60
31725;DHT22;18306;40.960;14.836;2023-04-28T09:21:02;23.10;89.50
31725;DHT22;18306;40.960;14.836;2023-04-28T09:23:30;23.10;89.80
31725;DHT22;18306;40.960;14.836;2023-04-28T09:26:05;23.20;88.40
31725;DHT22;18306;40.960;14.836;2023-04-28T09:28:36;23.40;88.90
31725;DHT22;18306;40.960;14.836;2023-04-28T09:31:03;23.40;89.40
31725;DHT22;18306;40.960;14.836;2023-04-28T09:33:30;23.40;89.80
31725;DHT22;18306;40.960;14.836;2023-04-28T09:35:58;23.30;89.90
31725;DHT22;18306;40.960;14.836;2023-04-28T09:38:25;23.10;90.00
31725;DHT22;18306;40.960;14.836;2023-04-28T09:41:02;22.60;90.30
31725;DHT22;18306;40.960;14.836;2023-04-28T09:43:34;22.50;90.40
31725;DHT22;18306;40.960;14.836;2023-04-28T09:46:03;22.70;90.70
31725;DHT22;18306;40.960;14.836;2023-04-28T09:48:35;22.60;90.90
31725;DHT22;18306;40.960;14.836;2023-04-28T09:51:03;22.50;90.30
31725;DHT22;18306;40.960;14.836;2023-04-28T09:53:32;22.40;91.10
31725;DHT22;18306;40.960;14.836;2023-04-28T09:56:06;22.40;90.40
31725;DHT22;18306;40.960;14.836;2023-04-28T09:58:33;22.70;90.90
31725;DHT22;18306;40.960;14.836;2023-04-28T10:01:05;22.80;90.40
31725;DHT22;18306;40.960;14.836;2023-04-28T10:03:38;22.80;90.40
31725;DHT22;18306;40.960;14.836;2023-04-28T10:06:08;22.70;90.40
31725;DHT22;18306;40.960;14.836;2023-04-28T10:08:39;22.80;90.60
31725;DHT22;18306;40.960;14.836;2023-04-28T10:11:07;22.80;89.30
31725;DHT22;18306;40.960;14.836;2023-04-28T10:13:36;22.70;89.30
31725;DHT22;18306;40.960;14.836;2023-04-28T10:16:03;22.70;90.00
31725;DHT22;18306;40.960;14.836;2023-04-28T10:18:31;22.70;89.50
31725;DHT22;18306;40.960;14.836;2023-04-28T10:21:02;22.70;89.40
31725;DHT22;18306;40.960;14.836;2023-04-28T10:26:08;22.60;87.50
31725;DHT22;18306;40.960;14.836;2023-04-28T10:28:36;22.60;87.10
31725;DHT22;18306;40.960;14.836;2023-04-28T10:31:18;22.50;87.50
31725;DHT22;18306;40.960;14.836;2023-04-28T10:33:49;22.40;85.40
31725;DHT22;18306;40.960;14.836;2023-04-28T10:50:06;22.50;85.00
31725;DHT22;18306;40.960;14.836;2023-04-28T10:56:26;22.50;84.50
31725;DHT22;18306;40.960;14.836;2023-04-28T10:59:26;22.80;84.90
31725;DHT22;18306;40.960;14.836;2023-04-28T11:28:15;23.70;79.70
31725;DHT22;18306;40.960;14.836;2023-04-28T11:35:18;22.90;78.50
31725;DHT22;18306;40.960;14.836;2023-04-28T11:37:45;23.20;78.40
31725;DHT22;18306;40.960;14.836;2023-04-28T11:40:13;23.20;79.80
31725;DHT22;18306;40.960;14.836;2023-04-28T11:42:50;23.30;78.10
31725;DHT22;18306;40.960;14.836;2023-04-28T11:45:19;23.40;78.20
31725;DHT22;18306;40.960;14.836;2023-04-28T11:47:50;23.30;76.20
31725;DHT22;18306;40.960;14.836;2023-04-28T11:50:34;23.50;76.80
31725;DHT22;18306;40.960;14.836;2023-04-28T11:53:05;23.50;75.60
31725;DHT22;18306;40.960;14.836;2023-04-28T11:55:33;23.70;76.40
31725;DHT22;18306;40.960;14.836;2023-04-28T11:58:21;23.70;76.40
31725;DHT22;18306;40.960;14.836;2023-04-28T12:01:10;23.60;77.80
31725;DHT22;18306;40.960;14.836;2023-04-28T12:03:45;23.60;78.20
31725;DHT22;18306;40.960;14.836;2023-04-28T12:06:21;23.60;78.50
31725;DHT22;18306;40.960;14.836;2023-04-28T12:08:49;23.70;78.80
31725;DHT22;18306;40.960;14.836;2023-04-28T12:11:18;23.70;77.10
31725;DHT22;18306;40.960;14.836;2023-04-28T12:14:06;23.70;78.30
31725;DHT22;18306;40.960;14.836;2023-04-28T12:16:38;23.80;78.00
31725;DHT22;18306;40.960;14.836;2023-04-28T12:19:09;23.70;78.20
31725;DHT22;18306;40.960;14.836;2023-04-28T12:22:04;23.80;77.60
31725;DHT22;18306;40.960;14.836;2023-04-28T12:24:38;22.80;79.10
31725;DHT22;18306;40.960;14.836;2023-04-28T12:27:17;23.90;77.70
31725;DHT22;18306;40.960;14.836;2023-04-28T12:30:28;24.10;78.80
31725;DHT22;18306;40.960;14.836;2023-04-28T12:32:58;24.00;75.30
31725;DHT22;18306;40.960;14.836;2023-04-28T12:35:27;23.80;75.20
31725;DHT22;18306;40.960;14.836;2023-04-28T12:37:55;23.70;75.30
31725;DHT22;18306;40.960;14.836;2023-04-28T12:40:24;23.90;75.70
31725;DHT22;18306;40.960;14.836;2023-04-28T12:42:51;24.00;75.40
31725;DHT22;18306;40.960;14.836;2023-04-28T12:45:18;23.90;74.00
31725;DHT22;18306;40.960;14.836;2023-04-28T12:47:45;23.80;74.70
31725;DHT22;18306;40.960;14.836;2023-04-28T12:50:13;23.90;73.80
31725;DHT22;18306;40.960;14.836;2023-04-28T12:52:40;24.00;73.60
31725;DHT22;18306;40.960;14.836;2023-04-28T12:55:09;24.00;74.00
31725;DHT22;18306;40.960;14.836;2023-04-28T12:57:36;24.00;73.40
31725;DHT22;18306;40.960;14.836;2023-04-28T13:00:04;23.90;73.40
31725;DHT22;18306;40.960;14.836;2023-04-28T13:02:32;23.90;72.80
31725;DHT22;18306;40.960;14.836;2023-04-28T13:04:59;23.90;73.20
31725;DHT22;18306;40.960;14.836;2023-04-28T13:07:27;23.80;73.20
31725;DHT22;18306;40.960;14.836;2023-04-28T13:09:54;24.00;73.20
31725;DHT22;18306;40.960;14.836;2023-04-28T13:12:22;24.00;73.40
31725;DHT22;18306;40.960;14.836;2023-04-28T13:14:49;23.70;71.20
31725;DHT22;18306;40.960;14.836;2023-04-28T13:17:16;23.70;73.20
31725;DHT22;18306;40.960;14.836;2023-04-28T13:19:44;23.70;73.80
31725;DHT22;18306;40.960;14.836;2023-04-28T13:22:11;23.90;73.00
31725;DHT22;18306;40.960;14.836;2023-04-28T13:24:38;24.00;72.80
31725;DHT22;18306;40.960;14.836;2023-04-28T13:27:05;24.10;73.10
31725;DHT22;18306;40.960;14.836;2023-04-28T13:29:35;24.00;71.00
31725;DHT22;18306;40.960;14.836;2023-04-28T13:32:02;24.00;70.20
31725;DHT22;18306;40.960;14.836;2023-04-28T13:34:31;24.10;70.70
31725;DHT22;18306;40.960;14.836;2023-04-28T13:36:58;23.90;68.20
31725;DHT22;18306;40.960;14.836;2023-04-28T13:39:25;23.90;69.60
31725;DHT22;18306;40.960;14.836;2023-04-28T13:41:52;23.90;69.80
31725;DHT22;18306;40.960;14.836;2023-04-28T13:44:19;24.00;69.70
31725;DHT22;18306;40.960;14.836;2023-04-28T13:46:46;23.80;68.10
31725;DHT22;18306;40.960;14.836;2023-04-28T13:49:15;23.60;68.20
31725;DHT22;18306;40.960;14.836;2023-04-28T13:51:42;23.50;68.50
31725;DHT22;18306;40.960;14.836;2023-04-28T13:54:11;23.60;67.80
31725;DHT22;18306;40.960;14.836;2023-04-28T13:56:38;23.50;68.00
31725;DHT22;18306;40.960;14.836;2023-04-28T13:59:05;23.20;69.60
31725;DHT22;18306;40.960;14.836;2023-04-28T14:01:32;23.00;70.60
31725;DHT22;18306;40.960;14.836;2023-04-28T14:03:59;23.20;68.10
31725;DHT22;18306;40.960;14.836;2023-04-28T14:06:26;23.30;69.30
31725;DHT22;18306;40.960;14.836;2023-04-28T14:08:54;23.70;67.20
31725;DHT22;18306;40.960;14.836;2023-04-28T14:11:21;23.50;68.80
31725;DHT22;18306;40.960;14.836;2023-04-28T14:13:48;23.60;68.20
31725;DHT22;18306;40.960;14.836;2023-04-28T14:16:15;23.70;67.60
31725;DHT22;18306;40.960;14.836;2023-04-28T14:18:42;23.60;67.90
31725;DHT22;18306;40.960;14.836;2023-04-28T14:21:09;23.70;68.00
31725;DHT22;18306;40.960;14.836;2023-04-28T14:23:36;23.60;68.50
31725;DHT22;18306;40.960;14.836;2023-04-28T14:26:04;23.70;67.30
31725;DHT22;18306;40.960;14.836;2023-04-28T14:28:31;23.70;68.20
31725;DHT22;18306;40.960;14.836;2023-04-28T14:31:02;23.60;67.30
31725;DHT22;18306;40.960;14.836;2023-04-28T14:33:31;23.40;67.80
31725;DHT22;18306;40.960;14.836;2023-04-28T14:35:59;23.30;68.60
31725;DHT22;18306;40.960;14.836;2023-04-28T14:38:28;23.50;68.90
31725;DHT22;18306;40.960;14.836;2023-04-28T14:40:56;23.60;68.00
31725;DHT22;18306;40.960;14.836;2023-04-28T14:43:23;23.60;67.80
31725;DHT22;18306;40.960;14.836;2023-04-28T14:45:50;23.70;68.40
31725;DHT22;18306;40.960;14.836;2023-04-28T14:48:18;23.70;68.20
31725;DHT22;18306;40.960;14.836;2023-04-28T14:50:45;23.30;69.20
31725;DHT22;18306;40.960;14.836;2023-04-28T14:53:13;23.10;70.70
31725;DHT22;18306;40.960;14.836;2023-04-28T14:55:40;23.20;71.30
31725;DHT22;18306;40.960;14.836;2023-04-28T14:58:07;23.30;71.10
31725;DHT22;18306;40.960;14.836;2023-04-28T15:00:34;22.70;71.30
31725;DHT22;18306;40.960;14.836;2023-04-28T15:03:01;22.80;70.90
31725;DHT22;18306;40.960;14.836;2023-04-28T15:05:29;23.00;71.40
31725;DHT22;18306;40.960;14.836;2023-04-28T15:07:56;23.20;71.70
31725;DHT22;18306;40.960;14.836;2023-04-28T15:10:23;23.20;70.10
31725;DHT22;18306;40.960;14.836;2023-04-28T15:12:51;23.50;71.60
31725;DHT22;18306;40.960;14.836;2023-04-28T15:15:18;23.60;69.40
31725;DHT22;18306;40.960;14.836;2023-04-28T15:17:45;23.60;70.30
31725;DHT22;18306;40.960;14.836;2023-04-28T15:20:13;23.20;71.50
31725;DHT22;18306;40.960;14.836;2023-04-28T15:22:39;23.20;72.80
31725;DHT22;18306;40.960;14.836;2023-04-28T15:25:10;23.20;72.70
31725;DHT22;18306;40.960;14.836;2023-04-28T15:27:37;23.20;73.40
31725;DHT22;18306;40.960;14.836;2023-04-28T15:30:04;23.20;73.30
31725;DHT22;18306;40.960;14.836;2023-04-28T15:32:31;23.20;72.70
31725;DHT22;18306;40.960;14.836;2023-04-28T15:34:58;22.90;73.30
31725;DHT22;18306;40.960;14.836;2023-04-28T15:40:05;23.00;73.50
31725;DHT22;18306;40.960;14.836;2023-04-28T15:42:32;23.30;73.70
31725;DHT22;18306;40.960;14.836;2023-04-28T15:44:59;23.40;73.80
31725;DHT22;18306;40.960;14.836;2023-04-28T15:47:28;23.40;74.20
31725;DHT22;18306;40.960;14.836;2023-04-28T15:49:57;23.30;74.60
31725;DHT22;18306;40.960;14.836;2023-04-28T15:52:27;23.30;74.70
31725;DHT22;18306;40.960;14.836;2023-04-28T15:54:55;23.30;74.80
31725;DHT22;18306;40.960;14.836;2023-04-28T15:57:23;23.30;75.00
31725;DHT22;18306;40.960;14.836;2023-04-28T15:59:50;23.30;75.10
31725;DHT22;18306;40.960;14.836;2023-04-28T16:02:17;23.40;75.50
31725;DHT22;18306;40.960;14.836;2023-04-28T16:04:44;23.50;75.70
31725;DHT22;18306;40.960;14.836;2023-04-28T16:07:12;23.50;75.70
31725;DHT22;18306;40.960;14.836;2023-04-28T16:09:39;23.50;75.70
31725;DHT22;18306;40.960;14.836;2023-04-28T16:12:07;23.50;75.60
31725;DHT22;18306;40.960;14.836;2023-04-28T16:14:34;23.60;76.00
31725;DHT22;18306;40.960;14.836;2023-04-28T16:17:01;23.60;76.60
31725;DHT22;18306;40.960;14.836;2023-04-28T16:19:35;23.50;76.90
31725;DHT22;18306;40.960;14.836;2023-04-28T16:22:02;23.30;76.70
31725;DHT22;18306;40.960;14.836;2023-04-28T16:24:29;23.30;77.50